sensor_id;sensor_type;location;lat;lon;timestamp;P1;durP1;ratioP1;P2;durP2;ratioP2
8312;SDS011;4194;43.408;24.626;2022-12-17T00:01:58;51.30;;;21.03;;
8312;SDS011;4194;43.408;24.626;2022-12-17T00:04:43;40.70;;;18.50;;
8312;SDS011;4194;43.408;24.626;2022-12-17T00:07:27;43.53;;;19.60;;
8312;SDS011;4194;43.408;24.626;2022-12-17T00:10:11;38.90;;;18.37;;
8312;SDS011;4194;43.408;24.626;2022-12-17T00:12:55;42.47;;;18.13;;
8312;SDS011;4194;43.408;24.626;2022-12-17T00:15:39;37.30;;;17.87;;
8312;SDS011;4194;43.408;24.626;2022-12-17T00:18:23;38.70;;;17.47;;
8312;SDS011;4194;43.408;24.626;2022-12-17T00:21:07;38.60;;;15.63;;
8312;SDS011;4194;43.408;24.626;2022-12-17T00:23:52;33.43;;;16.13;;
8312;SDS011;4194;43.408;24.626;2022-12-17T00:26:37;24.60;;;13.33;;
8312;SDS011;4194;43.408;24.626;2022-12-17T00:29:21;29.70;;;14.13;;
8312;SDS011;4194;43.408;24.626;2022-12-17T00:32:05;27.70;;;14.83;;
8312;SDS011;4194;43.408;24.626;2022-12-17T00:34:50;26.63;;;14.10;;
8312;SDS011;4194;43.408;24.626;2022-12-17T00:37:37;27.40;;;13.77;;
8312;SDS011;4194;43.408;24.626;2022-12-17T00:40:21;27.17;;;13.13;;
8312;SDS011;4194;43.408;24.626;2022-12-17T00:43:07;27.63;;;14.57;;
8312;SDS011;4194;43.408;24.626;2022-12-17T00:45:53;24.53;;;13.27;;
8312;SDS011;4194;43.408;24.626;2022-12-17T00:48:38;25.40;;;12.73;;
8312;SDS011;4194;43.408;24.626;2022-12-17T00:51:23;23.20;;;12.67;;
8312;SDS011;4194;43.408;24.626;2022-12-17T00:54:07;21.43;;;13.10;;
8312;SDS011;4194;43.408;24.626;2022-12-17T00:56:52;21.03;;;12.60;;
8312;SDS011;4194;43.408;24.626;2022-12-17T00:59:36;20.70;;;12.70;;
8312;SDS011;4194;43.408;24.626;2022-12-17T01:02:20;22.37;;;13.50;;
8312;SDS011;4194;43.408;24.626;2022-12-17T01:05:05;22.33;;;12.93;;
8312;SDS011;4194;43.408;24.626;2022-12-17T01:07:50;22.57;;;13.00;;
8312;SDS011;4194;43.408;24.626;2022-12-17T01:10:34;19.93;;;12.80;;
8312;SDS011;4194;43.408;24.626;2022-12-17T01:13:18;22.07;;;12.87;;
8312;SDS011;4194;43.408;24.626;2022-12-17T01:16:03;20.10;;;12.40;;
8312;SDS011;4194;43.408;24.626;2022-12-17T01:19:02;20.07;;;13.10;;
8312;SDS011;4194;43.408;24.626;2022-12-17T01:21:47;24.73;;;16.30;;
8312;SDS011;4194;43.408;24.626;2022-12-17T01:24:31;22.53;;;14.13;;
8312;SDS011;4194;43.408;24.626;2022-12-17T01:27:15;24.87;;;15.17;;
8312;SDS011;4194;43.408;24.626;2022-12-17T01:29:59;25.47;;;17.73;;
8312;SDS011;4194;43.408;24.626;2022-12-17T01:32:43;30.10;;;20.17;;
8312;SDS011;4194;43.408;24.626;2022-12-17T01:35:27;32.53;;;22.50;;
8312;SDS011;4194;43.408;24.626;2022-12-17T01:38:12;32.87;;;20.93;;
8312;SDS011;4194;43.408;24.626;2022-12-17T01:40:57;26.47;;;18.47;;
8312;SDS011;4194;43.408;24.626;2022-12-17T01:43:42;27.37;;;18.60;;
8312;SDS011;4194;43.408;24.626;2022-12-17T01:46:27;24.97;;;16.53;;
8312;SDS011;4194;43.408;24.626;2022-12-17T01:49:15;24.40;;;17.37;;
8312;SDS011;4194;43.408;24.626;2022-12-17T01:52:00;26.73;;;17.30;;
8312;SDS011;4194;43.408;24.626;2022-12-17T01:54:45;22.83;;;16.07;;
8312;SDS011;4194;43.408;24.626;2022-12-17T01:57:31;24.60;;;16.60;;
8312;SDS011;4194;43.408;24.626;2022-12-17T02:00:16;24.27;;;15.43;;
8312;SDS011;4194;43.408;24.626;2022-12-17T02:03:01;24.00;;;16.07;;
8312;SDS011;4194;43.408;24.626;2022-12-17T02:12:14;23.70;;;16.53;;
8312;SDS011;4194;43.408;24.626;2022-12-17T02:15:18;27.13;;;20.30;;
8312;SDS011;4194;43.408;24.626;2022-12-17T02:18:11;22.83;;;16.33;;
8312;SDS011;4194;43.408;24.626;2022-12-17T02:20:59;21.83;;;14.93;;
8312;SDS011;4194;43.408;24.626;2022-12-17T02:24:01;20.93;;;14.87;;
8312;SDS011;4194;43.408;24.626;2022-12-17T02:26:57;27.67;;;19.10;;
8312;SDS011;4194;43.408;24.626;2022-12-17T02:29:45;30.50;;;18.30;;
8312;SDS011;4194;43.408;24.626;2022-12-17T02:32:37;28.47;;;20.40;;
8312;SDS011;4194;43.408;24.626;2022-12-17T02:35:26;28.67;;;20.73;;
8312;SDS011;4194;43.408;24.626;2022-12-17T02:38:21;27.93;;;19.27;;
8312;SDS011;4194;43.408;24.626;2022-12-17T02:41:09;26.33;;;19.20;;
8312;SDS011;4194;43.408;24.626;2022-12-17T02:44:08;25.43;;;18.17;;
8312;SDS011;4194;43.408;24.626;2022-12-17T02:46:57;23.63;;;17.30;;
8312;SDS011;4194;43.408;24.626;2022-12-17T02:49:42;27.83;;;18.53;;
8312;SDS011;4194;43.408;24.626;2022-12-17T02:52:27;28.67;;;18.87;;
8312;SDS011;4194;43.408;24.626;2022-12-17T02:55:12;29.40;;;20.07;;
8312;SDS011;4194;43.408;24.626;2022-12-17T02:57:56;44.30;;;33.53;;
8312;SDS011;4194;43.408;24.626;2022-12-17T03:00:40;29.43;;;22.03;;
8312;SDS011;4194;43.408;24.626;2022-12-17T03:03:24;28.00;;;18.90;;
8312;SDS011;4194;43.408;24.626;2022-12-17T03:06:08;28.03;;;18.77;;
8312;SDS011;4194;43.408;24.626;2022-12-17T03:08:52;28.53;;;20.20;;
8312;SDS011;4194;43.408;24.626;2022-12-17T03:11:36;33.57;;;22.23;;
8312;SDS011;4194;43.408;24.626;2022-12-17T03:14:20;33.00;;;22.47;;
8312;SDS011;4194;43.408;24.626;2022-12-17T03:17:05;41.27;;;27.63;;
8312;SDS011;4194;43.408;24.626;2022-12-17T03:19:49;30.17;;;20.63;;
8312;SDS011;4194;43.408;24.626;2022-12-17T03:22:33;30.50;;;21.83;;
8312;SDS011;4194;43.408;24.626;2022-12-17T03:25:17;31.40;;;21.70;;
8312;SDS011;4194;43.408;24.626;2022-12-17T03:28:06;35.07;;;24.40;;
8312;SDS011;4194;43.408;24.626;2022-12-17T03:30:52;42.87;;;32.27;;
8312;SDS011;4194;43.408;24.626;2022-12-17T03:33:37;35.40;;;25.67;;
8312;SDS011;4194;43.408;24.626;2022-12-17T03:36:21;36.43;;;22.63;;
8312;SDS011;4194;43.408;24.626;2022-12-17T03:39:05;35.60;;;22.10;;
8312;SDS011;4194;43.408;24.626;2022-12-17T03:41:49;27.67;;;18.37;;
8312;SDS011;4194;43.408;24.626;2022-12-17T03:44:33;30.67;;;18.40;;
8312;SDS011;4194;43.408;24.626;2022-12-17T03:47:18;25.70;;;16.73;;
8312;SDS011;4194;43.408;24.626;2022-12-17T03:50:02;29.77;;;17.33;;
8312;SDS011;4194;43.408;24.626;2022-12-17T03:52:47;34.30;;;18.17;;
8312;SDS011;4194;43.408;24.626;2022-12-17T03:55:31;42.47;;;21.97;;
8312;SDS011;4194;43.408;24.626;2022-12-17T03:58:15;48.57;;;29.17;;
8312;SDS011;4194;43.408;24.626;2022-12-17T04:01:00;56.73;;;30.80;;
8312;SDS011;4194;43.408;24.626;2022-12-17T04:03:44;51.83;;;28.50;;
8312;SDS011;4194;43.408;24.626;2022-12-17T04:06:28;42.67;;;24.13;;
8312;SDS011;4194;43.408;24.626;2022-12-17T04:09:12;41.93;;;22.17;;
8312;SDS011;4194;43.408;24.626;2022-12-17T04:11:56;40.03;;;20.60;;
8312;SDS011;4194;43.408;24.626;2022-12-17T04:14:40;40.47;;;21.10;;
8312;SDS011;4194;43.408;24.626;2022-12-17T04:17:24;35.93;;;19.80;;
8312;SDS011;4194;43.408;24.626;2022-12-17T04:20:09;37.70;;;21.07;;
8312;SDS011;4194;43.408;24.626;2022-12-17T04:22:53;36.03;;;20.23;;
8312;SDS011;4194;43.408;24.626;2022-12-17T04:25:37;34.87;;;18.97;;
8312;SDS011;4194;43.408;24.626;2022-12-17T04:28:21;35.00;;;19.33;;
8312;SDS011;4194;43.408;24.626;2022-12-17T04:31:05;33.87;;;19.80;;
8312;SDS011;4194;43.408;24.626;2022-12-17T04:33:49;32.27;;;18.47;;
8312;SDS011;4194;43.408;24.626;2022-12-17T04:36:34;36.93;;;19.30;;
8312;SDS011;4194;43.408;24.626;2022-12-17T04:39:18;37.77;;;19.33;;
8312;SDS011;4194;43.408;24.626;2022-12-17T04:42:02;36.80;;;20.23;;
8312;SDS011;4194;43.408;24.626;2022-12-17T04:44:46;35.00;;;18.73;;
8312;SDS011;4194;43.408;24.626;2022-12-17T04:47:30;35.80;;;20.20;;
8312;SDS011;4194;43.408;24.626;2022-12-17T04:50:14;35.20;;;19.80;;
8312;SDS011;4194;43.408;24.626;2022-12-17T04:53:00;34.17;;;19.30;;
8312;SDS011;4194;43.408;24.626;2022-12-17T04:55:45;34.90;;;19.67;;
8312;SDS011;4194;43.408;24.626;2022-12-17T04:58:29;39.40;;;21.30;;
8312;SDS011;4194;43.408;24.626;2022-12-17T05:01:13;37.27;;;20.67;;
8312;SDS011;4194;43.408;24.626;2022-12-17T05:04:23;43.83;;;21.37;;
8312;SDS011;4194;43.408;24.626;2022-12-17T05:07:08;39.10;;;21.33;;
8312;SDS011;4194;43.408;24.626;2022-12-17T05:09:52;43.53;;;22.07;;
8312;SDS011;4194;43.408;24.626;2022-12-17T05:12:36;44.63;;;22.10;;
8312;SDS011;4194;43.408;24.626;2022-12-17T05:15:20;37.23;;;22.03;;
8312;SDS011;4194;43.408;24.626;2022-12-17T05:18:06;43.33;;;22.23;;
8312;SDS011;4194;43.408;24.626;2022-12-17T05:20:51;76.23;;;22.60;;
8312;SDS011;4194;43.408;24.626;2022-12-17T05:23:35;67.20;;;24.13;;
8312;SDS011;4194;43.408;24.626;2022-12-17T05:26:21;46.53;;;23.10;;
8312;SDS011;4194;43.408;24.626;2022-12-17T05:29:08;47.53;;;26.60;;
8312;SDS011;4194;43.408;24.626;2022-12-17T05:31:52;44.83;;;21.73;;
8312;SDS011;4194;43.408;24.626;2022-12-17T05:34:37;45.97;;;21.13;;
8312;SDS011;4194;43.408;24.626;2022-12-17T05:37:21;52.60;;;22.43;;
8312;SDS011;4194;43.408;24.626;2022-12-17T05:40:05;63.73;;;24.50;;
8312;SDS011;4194;43.408;24.626;2022-12-17T05:42:57;55.70;;;22.23;;
8312;SDS011;4194;43.408;24.626;2022-12-17T05:45:48;49.63;;;20.77;;
8312;SDS011;4194;43.408;24.626;2022-12-17T05:48:33;46.30;;;18.93;;
8312;SDS011;4194;43.408;24.626;2022-12-17T05:51:18;53.83;;;18.47;;
8312;SDS011;4194;43.408;24.626;2022-12-17T05:54:03;91.87;;;18.10;;
8312;SDS011;4194;43.408;24.626;2022-12-17T05:56:48;47.37;;;19.07;;
8312;SDS011;4194;43.408;24.626;2022-12-17T05:59:32;162.80;;;22.90;;
8312;SDS011;4194;43.408;24.626;2022-12-17T06:02:16;109.20;;;20.73;;
8312;SDS011;4194;43.408;24.626;2022-12-17T06:05:01;71.23;;;18.57;;
8312;SDS011;4194;43.408;24.626;2022-12-17T06:07:45;92.13;;;17.93;;
8312;SDS011;4194;43.408;24.626;2022-12-17T06:10:29;55.67;;;16.27;;
8312;SDS011;4194;43.408;24.626;2022-12-17T06:13:13;28.37;;;15.57;;
8312;SDS011;4194;43.408;24.626;2022-12-17T06:15:57;46.10;;;17.10;;
8312;SDS011;4194;43.408;24.626;2022-12-17T06:18:42;41.33;;;16.53;;
8312;SDS011;4194;43.408;24.626;2022-12-17T06:21:26;33.43;;;18.27;;
8312;SDS011;4194;43.408;24.626;2022-12-17T06:24:10;34.77;;;17.10;;
8312;SDS011;4194;43.408;24.626;2022-12-17T06:26:54;36.43;;;17.10;;
8312;SDS011;4194;43.408;24.626;2022-12-17T06:29:38;29.33;;;16.53;;
8312;SDS011;4194;43.408;24.626;2022-12-17T06:32:23;29.10;;;15.43;;
8312;SDS011;4194;43.408;24.626;2022-12-17T06:35:07;32.50;;;17.10;;
8312;SDS011;4194;43.408;24.626;2022-12-17T06:38:02;29.83;;;16.60;;
8312;SDS011;4194;43.408;24.626;2022-12-17T06:40:47;30.10;;;17.67;;
8312;SDS011;4194;43.408;24.626;2022-12-17T06:43:32;29.20;;;17.57;;
8312;SDS011;4194;43.408;24.626;2022-12-17T06:46:16;32.07;;;19.97;;
8312;SDS011;4194;43.408;24.626;2022-12-17T06:49:01;33.50;;;19.37;;
8312;SDS011;4194;43.408;24.626;2022-12-17T06:51:45;40.67;;;27.03;;
8312;SDS011;4194;43.408;24.626;2022-12-17T06:54:29;35.83;;;20.97;;
8312;SDS011;4194;43.408;24.626;2022-12-17T06:57:13;37.17;;;18.70;;
8312;SDS011;4194;43.408;24.626;2022-12-17T06:59:58;34.40;;;19.03;;
8312;SDS011;4194;43.408;24.626;2022-12-17T07:02:42;38.90;;;20.03;;
8312;SDS011;4194;43.408;24.626;2022-12-17T07:05:26;42.67;;;20.70;;
8312;SDS011;4194;43.408;24.626;2022-12-17T07:08:11;77.73;;;21.50;;
8312;SDS011;4194;43.408;24.626;2022-12-17T07:10:59;52.73;;;21.23;;
8312;SDS011;4194;43.408;24.626;2022-12-17T07:13:43;47.90;;;17.73;;
8312;SDS011;4194;43.408;24.626;2022-12-17T07:16:28;113.30;;;18.63;;
8312;SDS011;4194;43.408;24.626;2022-12-17T07:19:12;28.13;;;15.83;;
8312;SDS011;4194;43.408;24.626;2022-12-17T07:21:57;29.63;;;18.63;;
8312;SDS011;4194;43.408;24.626;2022-12-17T07:24:41;35.73;;;21.57;;
8312;SDS011;4194;43.408;24.626;2022-12-17T07:27:26;27.33;;;17.30;;
8312;SDS011;4194;43.408;24.626;2022-12-17T07:30:10;22.37;;;15.63;;
8312;SDS011;4194;43.408;24.626;2022-12-17T07:33:02;34.07;;;19.77;;
8312;SDS011;4194;43.408;24.626;2022-12-17T07:35:48;38.03;;;22.23;;
8312;SDS011;4194;43.408;24.626;2022-12-17T07:38:35;44.70;;;20.80;;
8312;SDS011;4194;43.408;24.626;2022-12-17T07:41:19;33.20;;;18.57;;
8312;SDS011;4194;43.408;24.626;2022-12-17T07:44:03;31.77;;;17.20;;
8312;SDS011;4194;43.408;24.626;2022-12-17T07:46:47;32.67;;;18.00;;
8312;SDS011;4194;43.408;24.626;2022-12-17T07:49:32;37.87;;;18.40;;
8312;SDS011;4194;43.408;24.626;2022-12-17T07:52:16;38.83;;;18.13;;
8312;SDS011;4194;43.408;24.626;2022-12-17T07:55:00;50.87;;;22.27;;
8312;SDS011;4194;43.408;24.626;2022-12-17T07:57:44;67.37;;;24.83;;
8312;SDS011;4194;43.408;24.626;2022-12-17T08:00:28;71.67;;;31.20;;
8312;SDS011;4194;43.408;24.626;2022-12-17T08:03:12;65.27;;;27.83;;
8312;SDS011;4194;43.408;24.626;2022-12-17T08:05:57;67.43;;;29.10;;
8312;SDS011;4194;43.408;24.626;2022-12-17T08:08:41;60.37;;;26.20;;
8312;SDS011;4194;43.408;24.626;2022-12-17T08:11:26;61.53;;;25.77;;
8312;SDS011;4194;43.408;24.626;2022-12-17T08:14:10;67.33;;;28.30;;
8312;SDS011;4194;43.408;24.626;2022-12-17T08:16:54;71.03;;;27.87;;
8312;SDS011;4194;43.408;24.626;2022-12-17T08:19:39;81.33;;;34.20;;
8312;SDS011;4194;43.408;24.626;2022-12-17T08:22:23;69.63;;;29.57;;
8312;SDS011;4194;43.408;24.626;2022-12-17T08:25:08;67.07;;;29.23;;
8312;SDS011;4194;43.408;24.626;2022-12-17T08:27:59;68.90;;;28.53;;
8312;SDS011;4194;43.408;24.626;2022-12-17T08:30:48;58.17;;;25.97;;
8312;SDS011;4194;43.408;24.626;2022-12-17T08:33:32;57.83;;;28.17;;
8312;SDS011;4194;43.408;24.626;2022-12-17T08:36:17;57.90;;;28.67;;
8312;SDS011;4194;43.408;24.626;2022-12-17T08:39:17;50.27;;;26.57;;
8312;SDS011;4194;43.408;24.626;2022-12-17T08:42:02;49.03;;;26.03;;
8312;SDS011;4194;43.408;24.626;2022-12-17T08:44:46;57.80;;;27.17;;
8312;SDS011;4194;43.408;24.626;2022-12-17T08:47:31;47.67;;;23.90;;
8312;SDS011;4194;43.408;24.626;2022-12-17T08:50:15;44.50;;;24.07;;
8312;SDS011;4194;43.408;24.626;2022-12-17T08:53:00;55.47;;;25.40;;
8312;SDS011;4194;43.408;24.626;2022-12-17T08:55:46;48.47;;;25.77;;
8312;SDS011;4194;43.408;24.626;2022-12-17T08:58:30;42.67;;;23.63;;
8312;SDS011;4194;43.408;24.626;2022-12-17T09:01:15;44.10;;;23.70;;
8312;SDS011;4194;43.408;24.626;2022-12-17T09:03:59;40.13;;;20.60;;
8312;SDS011;4194;43.408;24.626;2022-12-17T09:06:43;44.47;;;23.77;;
8312;SDS011;4194;43.408;24.626;2022-12-17T09:09:27;40.80;;;21.80;;
8312;SDS011;4194;43.408;24.626;2022-12-17T09:12:12;42.10;;;25.53;;
8312;SDS011;4194;43.408;24.626;2022-12-17T09:14:56;47.00;;;27.20;;
8312;SDS011;4194;43.408;24.626;2022-12-17T09:17:40;44.73;;;25.80;;
8312;SDS011;4194;43.408;24.626;2022-12-17T09:20:24;37.67;;;24.50;;
8312;SDS011;4194;43.408;24.626;2022-12-17T09:23:09;39.83;;;22.90;;
8312;SDS011;4194;43.408;24.626;2022-12-17T09:25:57;33.63;;;19.90;;
8312;SDS011;4194;43.408;24.626;2022-12-17T09:28:41;33.87;;;20.83;;
8312;SDS011;4194;43.408;24.626;2022-12-17T09:31:26;30.27;;;19.77;;
8312;SDS011;4194;43.408;24.626;2022-12-17T09:34:10;31.20;;;19.70;;
8312;SDS011;4194;43.408;24.626;2022-12-17T09:36:54;27.77;;;19.13;;
8312;SDS011;4194;43.408;24.626;2022-12-17T09:39:38;30.63;;;19.30;;
8312;SDS011;4194;43.408;24.626;2022-12-17T09:42:24;26.27;;;17.20;;
8312;SDS011;4194;43.408;24.626;2022-12-17T09:45:13;27.63;;;18.17;;
8312;SDS011;4194;43.408;24.626;2022-12-17T09:51:11;27.07;;;16.17;;
8312;SDS011;4194;43.408;24.626;2022-12-17T09:54:27;23.23;;;15.07;;
8312;SDS011;4194;43.408;24.626;2022-12-17T09:57:33;25.27;;;14.80;;
8312;SDS011;4194;43.408;24.626;2022-12-17T10:00:19;28.13;;;18.20;;
8312;SDS011;4194;43.408;24.626;2022-12-17T10:03:10;21.07;;;14.93;;
8312;SDS011;4194;43.408;24.626;2022-12-17T10:05:57;19.83;;;12.83;;
8312;SDS011;4194;43.408;24.626;2022-12-17T10:08:52;19.03;;;12.73;;
8312;SDS011;4194;43.408;24.626;2022-12-17T10:11:40;17.17;;;12.63;;
8312;SDS011;4194;43.408;24.626;2022-12-17T10:14:25;17.87;;;12.43;;
8312;SDS011;4194;43.408;24.626;2022-12-17T10:17:14;17.83;;;12.07;;
8312;SDS011;4194;43.408;24.626;2022-12-17T10:19:59;18.33;;;12.93;;
8312;SDS011;4194;43.408;24.626;2022-12-17T10:22:46;17.63;;;12.40;;
8312;SDS011;4194;43.408;24.626;2022-12-17T10:25:32;19.17;;;12.33;;
8312;SDS011;4194;43.408;24.626;2022-12-17T10:28:18;16.97;;;10.47;;
8312;SDS011;4194;43.408;24.626;2022-12-17T10:31:09;15.83;;;10.87;;
8312;SDS011;4194;43.408;24.626;2022-12-17T10:34:07;16.37;;;11.70;;
8312;SDS011;4194;43.408;24.626;2022-12-17T10:37:02;19.20;;;12.53;;
8312;SDS011;4194;43.408;24.626;2022-12-17T10:39:57;16.37;;;11.90;;
8312;SDS011;4194;43.408;24.626;2022-12-17T10:42:44;23.40;;;15.53;;
8312;SDS011;4194;43.408;24.626;2022-12-17T10:45:33;20.30;;;14.57;;
8312;SDS011;4194;43.408;24.626;2022-12-17T10:48:25;19.73;;;13.80;;
8312;SDS011;4194;43.408;24.626;2022-12-17T10:51:17;16.63;;;11.73;;
8312;SDS011;4194;43.408;24.626;2022-12-17T10:54:53;13.97;;;10.03;;
8312;SDS011;4194;43.408;24.626;2022-12-17T10:57:08;13.40;;;9.93;;
8312;SDS011;4194;43.408;24.626;2022-12-17T11:00:30;14.00;;;10.37;;
8312;SDS011;4194;43.408;24.626;2022-12-17T11:03:59;11.97;;;8.43;;
8312;SDS011;4194;43.408;24.626;2022-12-17T11:06:34;11.57;;;7.67;;
8312;SDS011;4194;43.408;24.626;2022-12-17T11:15:32;10.23;;;6.77;;
8312;SDS011;4194;43.408;24.626;2022-12-17T11:21:44;7.70;;;5.17;;
8312;SDS011;4194;43.408;24.626;2022-12-17T11:27:43;8.43;;;6.00;;
8312;SDS011;4194;43.408;24.626;2022-12-17T11:30:32;11.43;;;6.63;;
8312;SDS011;4194;43.408;24.626;2022-12-17T11:33:37;10.80;;;7.80;;
8312;SDS011;4194;43.408;24.626;2022-12-17T11:36:36;29.23;;;21.00;;
8312;SDS011;4194;43.408;24.626;2022-12-17T11:39:32;20.03;;;14.13;;
8312;SDS011;4194;43.408;24.626;2022-12-17T11:42:30;13.77;;;9.33;;
8312;SDS011;4194;43.408;24.626;2022-12-17T11:45:30;7.97;;;5.00;;
8312;SDS011;4194;43.408;24.626;2022-12-17T11:48:38;4.93;;;3.97;;
8312;SDS011;4194;43.408;24.626;2022-12-17T11:51:42;7.73;;;3.90;;
8312;SDS011;4194;43.408;24.626;2022-12-17T11:54:46;4.73;;;3.60;;
8312;SDS011;4194;43.408;24.626;2022-12-17T11:57:59;4.77;;;3.43;;
8312;SDS011;4194;43.408;24.626;2022-12-17T12:03:59;4.00;;;3.00;;
8312;SDS011;4194;43.408;24.626;2022-12-17T12:09:49;3.53;;;2.50;;
8312;SDS011;4194;43.408;24.626;2022-12-17T12:21:53;3.73;;;2.80;;
8312;SDS011;4194;43.408;24.626;2022-12-17T12:33:59;2.83;;;1.37;;
8312;SDS011;4194;43.408;24.626;2022-12-17T12:36:47;3.57;;;1.60;;
8312;SDS011;4194;43.408;24.626;2022-12-17T12:39:35;7.60;;;2.03;;
8312;SDS011;4194;43.408;24.626;2022-12-17T12:42:44;5.47;;;4.10;;
8312;SDS011;4194;43.408;24.626;2022-12-17T12:45:39;2.67;;;1.77;;
8312;SDS011;4194;43.408;24.626;2022-12-17T12:51:33;2.57;;;1.90;;
8312;SDS011;4194;43.408;24.626;2022-12-17T13:11:40;4.67;;;2.77;;
8312;SDS011;4194;43.408;24.626;2022-12-17T13:14:53;5.60;;;3.43;;
8312;SDS011;4194;43.408;24.626;2022-12-17T13:24:44;5.83;;;4.10;;
8312;SDS011;4194;43.408;24.626;2022-12-17T13:29:55;6.13;;;4.40;;
8312;SDS011;4194;43.408;24.626;2022-12-17T13:32:24;5.47;;;3.93;;
8312;SDS011;4194;43.408;24.626;2022-12-17T13:37:42;7.67;;;5.10;;
8312;SDS011;4194;43.408;24.626;2022-12-17T13:43:14;7.80;;;5.93;;
8312;SDS011;4194;43.408;24.626;2022-12-17T13:45:42;9.27;;;6.90;;
8312;SDS011;4194;43.408;24.626;2022-12-17T13:48:15;9.83;;;8.73;;
8312;SDS011;4194;43.408;24.626;2022-12-17T13:50:54;14.17;;;12.23;;
8312;SDS011;4194;43.408;24.626;2022-12-17T13:53:28;11.03;;;9.03;;
8312;SDS011;4194;43.408;24.626;2022-12-17T13:55:55;13.10;;;8.83;;
8312;SDS011;4194;43.408;24.626;2022-12-17T14:01:08;12.33;;;9.03;;
8312;SDS011;4194;43.408;24.626;2022-12-17T14:03:37;12.20;;;8.27;;
8312;SDS011;4194;43.408;24.626;2022-12-17T14:06:03;9.37;;;7.87;;
8312;SDS011;4194;43.408;24.626;2022-12-17T14:08:33;12.93;;;8.53;;
8312;SDS011;4194;43.408;24.626;2022-12-17T14:10:59;10.93;;;8.03;;
8312;SDS011;4194;43.408;24.626;2022-12-17T14:13:45;12.00;;;8.67;;
8312;SDS011;4194;43.408;24.626;2022-12-17T14:16:16;12.63;;;9.13;;
8312;SDS011;4194;43.408;24.626;2022-12-17T14:18:44;11.17;;;9.40;;
8312;SDS011;4194;43.408;24.626;2022-12-17T14:21:16;13.53;;;9.87;;
8312;SDS011;4194;43.408;24.626;2022-12-17T14:23:42;13.47;;;9.83;;
8312;SDS011;4194;43.408;24.626;2022-12-17T14:26:11;14.53;;;10.73;;
8312;SDS011;4194;43.408;24.626;2022-12-17T14:28:44;17.00;;;10.73;;
8312;SDS011;4194;43.408;24.626;2022-12-17T14:33:39;21.40;;;15.90;;
8312;SDS011;4194;43.408;24.626;2022-12-17T14:36:07;17.87;;;13.50;;
8312;SDS011;4194;43.408;24.626;2022-12-17T14:38:57;37.03;;;24.00;;
8312;SDS011;4194;43.408;24.626;2022-12-17T14:41:25;23.37;;;16.17;;
8312;SDS011;4194;43.408;24.626;2022-12-17T14:44:29;18.73;;;13.30;;
8312;SDS011;4194;43.408;24.626;2022-12-17T14:47:06;20.20;;;14.70;;
8312;SDS011;4194;43.408;24.626;2022-12-17T14:49:49;16.67;;;12.97;;
8312;SDS011;4194;43.408;24.626;2022-12-17T14:52:43;21.23;;;15.00;;
8312;SDS011;4194;43.408;24.626;2022-12-17T15:00:39;22.33;;;15.43;;
8312;SDS011;4194;43.408;24.626;2022-12-17T15:03:14;22.17;;;16.90;;
8312;SDS011;4194;43.408;24.626;2022-12-17T15:05:54;21.40;;;15.20;;
8312;SDS011;4194;43.408;24.626;2022-12-17T15:08:41;19.53;;;14.37;;
8312;SDS011;4194;43.408;24.626;2022-12-17T15:11:12;22.47;;;15.13;;
8312;SDS011;4194;43.408;24.626;2022-12-17T15:13:40;19.10;;;14.43;;
8312;SDS011;4194;43.408;24.626;2022-12-17T15:16:06;24.33;;;15.20;;
8312;SDS011;4194;43.408;24.626;2022-12-17T15:18:32;22.37;;;15.00;;
8312;SDS011;4194;43.408;24.626;2022-12-17T15:20:58;22.90;;;14.23;;
8312;SDS011;4194;43.408;24.626;2022-12-17T15:23:25;22.17;;;14.60;;
8312;SDS011;4194;43.408;24.626;2022-12-17T15:25:51;20.93;;;14.10;;
8312;SDS011;4194;43.408;24.626;2022-12-17T15:28:18;24.47;;;16.20;;
8312;SDS011;4194;43.408;24.626;2022-12-17T15:30:46;21.80;;;16.07;;
8312;SDS011;4194;43.408;24.626;2022-12-17T15:33:13;22.33;;;15.73;;
8312;SDS011;4194;43.408;24.626;2022-12-17T15:35:39;23.17;;;15.23;;
8312;SDS011;4194;43.408;24.626;2022-12-17T15:38:06;22.57;;;15.20;;
8312;SDS011;4194;43.408;24.626;2022-12-17T15:40:32;23.33;;;16.47;;
8312;SDS011;4194;43.408;24.626;2022-12-17T15:43:00;22.27;;;15.80;;
8312;SDS011;4194;43.408;24.626;2022-12-17T15:48:10;24.27;;;16.37;;
8312;SDS011;4194;43.408;24.626;2022-12-17T15:50:38;24.63;;;17.10;;
8312;SDS011;4194;43.408;24.626;2022-12-17T15:53:04;26.70;;;18.37;;
8312;SDS011;4194;43.408;24.626;2022-12-17T15:55:30;27.70;;;18.67;;
8312;SDS011;4194;43.408;24.626;2022-12-17T15:58:00;24.40;;;17.23;;
8312;SDS011;4194;43.408;24.626;2022-12-17T16:00:26;27.07;;;18.17;;
8312;SDS011;4194;43.408;24.626;2022-12-17T16:02:51;25.93;;;17.93;;
8312;SDS011;4194;43.408;24.626;2022-12-17T16:05:17;25.97;;;17.97;;
8312;SDS011;4194;43.408;24.626;2022-12-17T16:07:45;24.33;;;17.73;;
8312;SDS011;4194;43.408;24.626;2022-12-17T16:10:11;24.83;;;17.43;;
8312;SDS011;4194;43.408;24.626;2022-12-17T16:12:38;22.33;;;16.27;;
8312;SDS011;4194;43.408;24.626;2022-12-17T16:15:04;23.50;;;17.40;;
8312;SDS011;4194;43.408;24.626;2022-12-17T16:17:30;23.03;;;15.50;;
8312;SDS011;4194;43.408;24.626;2022-12-17T16:19:56;23.33;;;16.00;;
8312;SDS011;4194;43.408;24.626;2022-12-17T16:22:22;24.87;;;17.47;;
8312;SDS011;4194;43.408;24.626;2022-12-17T16:24:48;26.60;;;16.73;;
8312;SDS011;4194;43.408;24.626;2022-12-17T16:27:16;28.47;;;17.97;;
8312;SDS011;4194;43.408;24.626;2022-12-17T16:29:42;27.90;;;18.23;;
8312;SDS011;4194;43.408;24.626;2022-12-17T16:32:08;27.07;;;18.13;;
8312;SDS011;4194;43.408;24.626;2022-12-17T16:34:33;27.90;;;17.67;;
8312;SDS011;4194;43.408;24.626;2022-12-17T16:36:59;22.30;;;16.23;;
8312;SDS011;4194;43.408;24.626;2022-12-17T16:39:25;24.43;;;16.13;;
8312;SDS011;4194;43.408;24.626;2022-12-17T16:41:51;23.33;;;16.67;;
8312;SDS011;4194;43.408;24.626;2022-12-17T16:44:17;22.63;;;15.83;;
8312;SDS011;4194;43.408;24.626;2022-12-17T16:46:43;24.17;;;16.93;;
8312;SDS011;4194;43.408;24.626;2022-12-17T16:49:17;23.90;;;16.37;;
8312;SDS011;4194;43.408;24.626;2022-12-17T16:51:45;23.20;;;16.40;;
8312;SDS011;4194;43.408;24.626;2022-12-17T16:54:14;23.17;;;15.13;;
8312;SDS011;4194;43.408;24.626;2022-12-17T16:56:43;18.83;;;13.50;;
8312;SDS011;4194;43.408;24.626;2022-12-17T16:59:11;20.97;;;13.50;;
8312;SDS011;4194;43.408;24.626;2022-12-17T17:01:38;16.80;;;13.27;;
8312;SDS011;4194;43.408;24.626;2022-12-17T17:04:05;22.33;;;14.20;;
8312;SDS011;4194;43.408;24.626;2022-12-17T17:06:39;20.20;;;14.97;;
8312;SDS011;4194;43.408;24.626;2022-12-17T17:09:07;17.13;;;12.83;;
8312;SDS011;4194;43.408;24.626;2022-12-17T17:11:33;17.70;;;12.70;;
8312;SDS011;4194;43.408;24.626;2022-12-17T17:13:59;14.87;;;11.17;;
8312;SDS011;4194;43.408;24.626;2022-12-17T17:16:25;15.27;;;11.17;;
8312;SDS011;4194;43.408;24.626;2022-12-17T17:18:51;20.83;;;13.10;;
8312;SDS011;4194;43.408;24.626;2022-12-17T17:23:43;30.67;;;15.53;;
8312;SDS011;4194;43.408;24.626;2022-12-17T17:26:31;23.33;;;11.37;;
8312;SDS011;4194;43.408;24.626;2022-12-17T17:28:57;29.27;;;16.20;;
8312;SDS011;4194;43.408;24.626;2022-12-17T17:31:23;23.07;;;14.07;;
8312;SDS011;4194;43.408;24.626;2022-12-17T17:33:49;33.87;;;21.47;;
8312;SDS011;4194;43.408;24.626;2022-12-17T17:36:26;50.30;;;30.43;;
8312;SDS011;4194;43.408;24.626;2022-12-17T17:38:53;135.07;;;75.90;;
8312;SDS011;4194;43.408;24.626;2022-12-17T17:41:22;120.43;;;76.13;;
8312;SDS011;4194;43.408;24.626;2022-12-17T17:43:51;45.40;;;31.67;;
8312;SDS011;4194;43.408;24.626;2022-12-17T17:46:21;27.20;;;21.43;;